createdAt,value
2022-12-04T00:01:43.371Z,0.36
2022-12-04T00:04:17.163Z,0.30
2022-12-04T00:06:55.526Z,0.35
2022-12-04T00:09:32.186Z,0.36
2022-12-04T00:12:06.241Z,0.36
2022-12-04T00:15:00.793Z,0.37
2022-12-04T00:17:35.182Z,0.37
2022-12-04T00:20:09.948Z,0.39
2022-12-04T00:22:43.786Z,0.40
2022-12-04T00:25:17.618Z,0.38
2022-12-04T00:27:51.409Z,0.38
2022-12-04T00:30:24.995Z,0.37
2022-12-04T00:33:00.099Z,0.35
2022-12-04T00:35:33.932Z,0.42
2022-12-04T00:38:07.758Z,0.38
2022-12-04T00:40:41.241Z,0.39
2022-12-04T00:43:14.944Z,0.39
2022-12-04T00:45:49.069Z,0.38
2022-12-04T00:48:24.402Z,0.44
2022-12-04T00:51:03.106Z,0.52
2022-12-04T00:53:37.747Z,0.45
2022-12-04T00:56:14.039Z,0.58
2022-12-04T00:58:48.053Z,0.51
2022-12-04T01:01:22.414Z,0.50
2022-12-04T01:03:57.834Z,0.49
2022-12-04T01:06:32.995Z,0.43
2022-12-04T01:09:07.239Z,0.50
2022-12-04T01:11:40.892Z,0.47
2022-12-04T01:14:14.678Z,0.52
2022-12-04T01:16:48.479Z,0.54
2022-12-04T01:19:23.820Z,0.63
2022-12-04T01:21:57.350Z,0.60
2022-12-04T01:24:31.154Z,0.54
2022-12-04T01:27:04.707Z,0.54
2022-12-04T01:29:39.738Z,0.53
2022-12-04T01:32:13.337Z,0.54
2022-12-04T01:34:48.736Z,0.57
2022-12-04T01:37:22.427Z,0.60
2022-12-04T01:39:56.358Z,0.64
2022-12-04T01:42:30.163Z,0.61
2022-12-04T01:45:41.659Z,0.56
2022-12-04T01:48:22.018Z,0.49
2022-12-04T01:51:03.683Z,0.58
2022-12-04T01:53:40.698Z,0.61
2022-12-04T01:56:15.655Z,0.60
2022-12-04T01:58:53.610Z,0.59
2022-12-04T02:01:32.545Z,0.57
2022-12-04T02:04:06.121Z,0.61
2022-12-04T02:06:41.455Z,0.68
2022-12-04T02:09:15.582Z,0.71
2022-12-04T02:11:56.416Z,0.66
2022-12-04T02:14:37.874Z,0.67
2022-12-04T02:17:21.788Z,0.63
2022-12-04T02:20:06.845Z,0.79
2022-12-04T02:23:18.169Z,0.72
2022-12-04T02:26:00.577Z,0.73
2022-12-04T02:28:43.027Z,0.73
2022-12-04T02:31:23.932Z,0.66
2022-12-04T02:34:02.131Z,0.67
2022-12-04T02:36:41.857Z,0.70
2022-12-04T02:39:20.432Z,0.68
2022-12-04T02:41:58.358Z,0.61
2022-12-04T02:44:38.059Z,0.65
2022-12-04T02:47:14.500Z,0.70
2022-12-04T02:49:53.410Z,0.70
2022-12-04T02:52:33.028Z,0.61
2022-12-04T02:55:12.152Z,0.64
2022-12-04T02:57:50.004Z,0.69
2022-12-04T03:00:25.457Z,0.68
2022-12-04T03:03:02.944Z,0.67
2022-12-04T03:05:42.211Z,0.73
2022-12-04T03:08:21.177Z,0.69
2022-12-04T03:10:58.341Z,0.77
2022-12-04T03:13:37.391Z,0.76
2022-12-04T03:16:17.338Z,0.75
2022-12-04T03:18:55.377Z,0.77
2022-12-04T03:21:34.222Z,0.80
2022-12-04T03:24:14.149Z,0.80
2022-12-04T03:26:51.545Z,0.72
2022-12-04T03:29:33.142Z,0.75
2022-12-04T03:32:13.576Z,0.71
2022-12-04T03:34:55.300Z,0.66
2022-12-04T03:37:35.172Z,0.73
2022-12-04T03:40:16.650Z,0.67
2022-12-04T03:42:55.892Z,0.73
2022-12-04T03:45:37.473Z,0.71
2022-12-04T03:48:23.016Z,0.71
2022-12-04T03:51:01.589Z,0.70
2022-12-04T03:53:40.820Z,0.72
2022-12-04T03:56:18.922Z,0.71
2022-12-04T03:58:57.829Z,0.65
2022-12-04T04:01:39.149Z,0.73
2022-12-04T04:04:17.807Z,0.78
2022-12-04T04:06:56.379Z,0.79
2022-12-04T04:09:33.616Z,0.77
2022-12-04T04:12:12.072Z,0.74
2022-12-04T04:15:08.756Z,0.74
2022-12-04T04:18:02.050Z,0.80
2022-12-04T04:21:00.004Z,0.81
2022-12-04T04:23:57.053Z,0.82
2022-12-04T04:26:36.166Z,0.76
2022-12-04T04:29:10.331Z,0.79
2022-12-04T04:31:50.349Z,0.76
2022-12-04T04:34:33.553Z,0.83
2022-12-04T04:37:17.776Z,0.75
2022-12-04T04:39:58.164Z,0.73
2022-12-04T04:42:37.194Z,0.79
2022-12-04T04:45:17.431Z,0.74
2022-12-04T04:47:55.493Z,0.81
2022-12-04T04:50:31.347Z,0.75
2022-12-04T04:53:10.625Z,0.70
2022-12-04T04:55:45.164Z,0.79
2022-12-04T04:58:21.366Z,0.77
2022-12-04T05:01:00.685Z,0.81
2022-12-04T05:03:35.147Z,0.82
2022-12-04T05:06:09.515Z,0.75
2022-12-04T05:08:44.866Z,0.84
2022-12-04T05:11:19.037Z,0.82
2022-12-04T05:13:52.754Z,0.80
2022-12-04T05:16:26.262Z,0.83
2022-12-04T05:19:18.090Z,0.85
2022-12-04T05:21:51.756Z,0.85
2022-12-04T05:24:27.114Z,0.89
2022-12-04T05:27:00.760Z,0.89
2022-12-04T05:29:36.040Z,0.83
2022-12-04T05:32:09.850Z,0.86
2022-12-04T05:34:43.593Z,0.81
2022-12-04T05:37:17.516Z,0.75
2022-12-04T05:39:52.856Z,0.83
2022-12-04T05:42:27.069Z,0.89
2022-12-04T05:45:00.788Z,0.93
2022-12-04T05:47:39.123Z,0.82
2022-12-04T05:50:14.583Z,0.75
2022-12-04T05:52:48.159Z,0.78
2022-12-04T05:55:23.221Z,0.82
2022-12-04T05:57:56.911Z,0.92
2022-12-04T06:00:31.070Z,0.85
2022-12-04T06:03:04.915Z,0.84
2022-12-04T06:05:38.736Z,0.86
2022-12-04T06:08:12.630Z,0.86
2022-12-04T06:10:47.725Z,0.85
2022-12-04T06:13:21.296Z,0.91
2022-12-04T06:15:55.122Z,0.91
2022-12-04T06:18:28.726Z,0.93
2022-12-04T06:21:02.633Z,0.93
2022-12-04T06:23:36.237Z,0.89
2022-12-04T06:26:11.420Z,0.94
2022-12-04T06:28:45.214Z,0.97
2022-12-04T06:31:20.010Z,0.89
2022-12-04T06:33:54.650Z,0.90
2022-12-04T06:36:28.515Z,0.90
2022-12-04T06:39:02.244Z,0.90
2022-12-04T06:41:37.692Z,0.93
2022-12-04T06:44:11.340Z,0.92
2022-12-04T06:46:47.592Z,1.01
2022-12-04T06:49:22.926Z,0.91
2022-12-04T06:51:56.926Z,0.97
2022-12-04T06:54:30.515Z,1.02
2022-12-04T06:57:05.639Z,0.96
2022-12-04T06:59:39.237Z,0.95
2022-12-04T07:02:12.966Z,0.95
2022-12-04T07:04:46.686Z,0.93
2022-12-04T07:07:20.410Z,0.99
2022-12-04T07:09:54.112Z,1.02
2022-12-04T07:12:29.398Z,1.05
2022-12-04T07:15:02.963Z,1.10
2022-12-04T07:17:37.236Z,1.08
2022-12-04T07:20:11.697Z,1.11
2022-12-04T07:22:45.463Z,1.11
2022-12-04T07:25:19.702Z,1.18
2022-12-04T07:27:54.864Z,1.19
2022-12-04T07:30:28.618Z,1.22
2022-12-04T07:33:03.090Z,1.25
2022-12-04T07:35:36.746Z,1.18
2022-12-04T07:38:10.523Z,1.26
2022-12-04T07:40:44.058Z,1.26
2022-12-04T07:43:19.149Z,1.27
2022-12-04T07:45:52.824Z,1.34
2022-12-04T07:48:32.995Z,1.33
2022-12-04T07:51:08.410Z,1.43
2022-12-04T07:53:42.972Z,1.47
2022-12-04T07:56:16.726Z,1.40
2022-12-04T07:58:51.958Z,1.50
2022-12-04T08:01:25.804Z,1.44
2022-12-04T08:04:01.479Z,1.38
2022-12-04T08:06:36.032Z,1.36
2022-12-04T08:09:10.391Z,1.35
2022-12-04T08:11:44.119Z,1.45
2022-12-04T08:14:19.236Z,1.55
2022-12-04T08:16:53.199Z,1.51
2022-12-04T08:19:27.031Z,1.50
2022-12-04T08:22:00.565Z,1.58
2022-12-04T08:24:34.289Z,1.64
2022-12-04T08:27:07.885Z,1.62
2022-12-04T08:29:42.960Z,1.60
2022-12-04T08:32:16.513Z,1.71
2022-12-04T08:34:55.728Z,1.68
2022-12-04T08:37:29.619Z,1.64
2022-12-04T08:40:03.984Z,1.75
2022-12-04T08:42:37.993Z,1.84
2022-12-04T08:45:13.541Z,1.81
2022-12-04T08:47:52.285Z,1.77
2022-12-04T08:50:27.225Z,1.86
2022-12-04T08:53:00.810Z,1.86
2022-12-04T08:55:36.135Z,1.89
2022-12-04T08:58:09.881Z,1.99
2022-12-04T09:00:45.123Z,1.95
2022-12-04T09:03:24.750Z,1.98
2022-12-04T09:06:02.625Z,1.98
2022-12-04T09:08:37.451Z,2.09
2022-12-04T09:11:13.665Z,2.06
2022-12-04T09:13:48.679Z,2.07
2022-12-04T09:16:25.501Z,2.19
2022-12-04T09:18:59.226Z,2.21
2022-12-04T09:21:33.102Z,2.22
2022-12-04T09:24:07.076Z,2.24
2022-12-04T09:26:41.069Z,2.31
2022-12-04T09:29:14.965Z,2.31
2022-12-04T09:31:50.247Z,2.21
2022-12-04T09:34:23.860Z,2.24
2022-12-04T09:36:57.860Z,2.28
2022-12-04T09:39:31.622Z,2.36
2022-12-04T09:42:31.695Z,2.40
2022-12-04T09:45:12.893Z,2.39
2022-12-04T09:47:50.661Z,2.47
2022-12-04T09:50:27.726Z,2.64
2022-12-04T09:53:04.449Z,2.64
2022-12-04T09:55:43.474Z,2.59
2022-12-04T09:58:22.243Z,2.59
2022-12-04T10:00:57.660Z,2.58
2022-12-04T10:03:33.113Z,2.61
2022-12-04T10:06:14.415Z,2.68
2022-12-04T10:09:02.757Z,2.67
2022-12-04T10:11:50.501Z,2.74
2022-12-04T10:14:42.184Z,2.76
2022-12-04T10:17:32.993Z,2.83
2022-12-04T10:20:22.799Z,2.85
2022-12-04T10:23:12.231Z,2.90
2022-12-04T10:25:50.305Z,2.90
2022-12-04T10:28:28.822Z,2.99
2022-12-04T10:31:06.088Z,2.87
2022-12-04T10:33:45.341Z,2.81
2022-12-04T10:36:22.886Z,2.95
2022-12-04T10:38:59.901Z,2.96
2022-12-04T10:41:42.362Z,2.94
2022-12-04T10:44:18.385Z,2.95
2022-12-04T10:46:56.138Z,2.87
2022-12-04T10:49:31.517Z,2.88
2022-12-04T10:52:07.851Z,2.94
2022-12-04T10:54:48.273Z,2.97
2022-12-04T10:57:22.121Z,2.88
2022-12-04T10:59:58.837Z,2.92
2022-12-04T11:02:34.794Z,2.97
2022-12-04T11:05:24.329Z,2.98
2022-12-04T11:08:01.588Z,2.98
2022-12-04T11:10:38.853Z,2.94
2022-12-04T11:13:18.055Z,2.93
2022-12-04T11:15:53.493Z,2.94
2022-12-04T11:18:29.454Z,2.89
2022-12-04T11:21:06.251Z,2.93
2022-12-04T11:23:46.452Z,2.97
2022-12-04T11:26:31.611Z,2.98
2022-12-04T11:29:07.386Z,3.01
2022-12-04T11:31:41.713Z,3.12
2022-12-04T11:34:21.373Z,3.04
2022-12-04T11:36:58.106Z,3.06
2022-12-04T11:39:37.692Z,3.08
2022-12-04T11:42:19.528Z,3.06
2022-12-04T11:44:56.456Z,3.06
2022-12-04T11:47:32.127Z,3.16
2022-12-04T11:50:28.963Z,3.08
2022-12-04T11:53:11.360Z,3.03
2022-12-04T11:56:01.274Z,3.15
2022-12-04T11:58:52.394Z,3.16
2022-12-04T12:01:41.466Z,3.09
2022-12-04T12:04:34.785Z,3.13
2022-12-04T12:07:23.199Z,3.26
2022-12-04T12:10:04.745Z,3.23
2022-12-04T12:12:53.486Z,3.30
2022-12-04T12:15:38.179Z,3.29
2022-12-04T12:18:27.218Z,3.26
2022-12-04T12:21:03.985Z,3.29
2022-12-04T12:24:03.851Z,3.35
2022-12-04T12:26:47.432Z,3.35
2022-12-04T12:29:44.406Z,3.35
2022-12-04T12:32:37.323Z,3.36
2022-12-04T12:35:21.617Z,3.44
2022-12-04T12:38:00.918Z,3.39
2022-12-04T12:40:38.156Z,3.43
2022-12-04T12:43:17.380Z,3.36
2022-12-04T12:45:56.579Z,3.43
2022-12-04T12:48:38.292Z,3.47
2022-12-04T12:51:30.062Z,3.42
2022-12-04T12:54:15.305Z,3.42
2022-12-04T12:56:54.788Z,3.46
2022-12-04T12:59:29.098Z,3.48
2022-12-04T13:02:09.375Z,3.50
2022-12-04T13:04:45.701Z,3.55
2022-12-04T13:07:30.423Z,3.57
2022-12-04T13:10:08.831Z,3.51
2022-12-04T13:12:47.095Z,3.54
2022-12-04T13:15:24.991Z,3.54
2022-12-04T13:18:01.375Z,3.66
2022-12-04T13:20:42.999Z,3.71
2022-12-04T13:23:28.189Z,3.64
2022-12-04T13:26:06.810Z,3.70
2022-12-04T13:28:53.417Z,3.75
2022-12-04T13:31:36.565Z,3.76
2022-12-04T13:34:32.221Z,3.72
2022-12-04T13:37:24.270Z,3.85
2022-12-04T13:40:34.352Z,3.81
2022-12-04T13:43:24.962Z,3.83
2022-12-04T13:46:01.515Z,3.85
2022-12-04T13:48:39.820Z,3.84
2022-12-04T13:51:37.417Z,3.85
2022-12-04T13:54:29.851Z,3.87
2022-12-04T13:57:22.198Z,3.95
2022-12-04T14:00:05.688Z,3.95
2022-12-04T14:02:45.442Z,3.96
2022-12-04T14:05:28.011Z,3.94
2022-12-04T14:08:09.320Z,3.91
2022-12-04T14:10:43.696Z,3.98
2022-12-04T14:13:21.825Z,4.02
2022-12-04T14:16:05.459Z,3.97
2022-12-04T14:18:39.414Z,4.05
2022-12-04T14:21:13.249Z,4.01
2022-12-04T14:23:48.843Z,4.06
2022-12-04T14:27:10.673Z,4.06
2022-12-04T14:29:35.704Z,4.02
2022-12-04T14:32:14.916Z,4.00
2022-12-04T14:34:49.047Z,4.01
2022-12-04T14:37:28.880Z,4.05
2022-12-04T14:40:07.234Z,4.08
2022-12-04T14:42:41.484Z,4.08
2022-12-04T14:45:25.267Z,4.10
2022-12-04T14:48:14.184Z,4.01
2022-12-04T14:50:56.681Z,3.99
2022-12-04T14:53:40.203Z,4.01
2022-12-04T14:56:41.968Z,4.01
2022-12-04T14:59:18.624Z,3.96
2022-12-04T15:01:55.691Z,3.98
2022-12-04T15:04:33.718Z,4.02
2022-12-04T15:07:07.664Z,4.07
2022-12-04T15:10:09.113Z,4.02
2022-12-04T15:12:48.400Z,4.01
2022-12-04T15:15:25.294Z,4.07
2022-12-04T15:18:01.795Z,4.04
2022-12-04T15:20:41.781Z,3.97
2022-12-04T15:23:17.380Z,4.02
2022-12-04T15:25:53.137Z,4.06
2022-12-04T15:28:32.607Z,4.03
2022-12-04T15:31:11.447Z,3.99
2022-12-04T15:33:47.153Z,4.03
2022-12-04T15:36:36.640Z,3.99
2022-12-04T15:39:15.450Z,4.05
2022-12-04T15:41:49.556Z,4.11
2022-12-04T15:44:28.569Z,4.07
2022-12-04T15:47:04.349Z,4.12
2022-12-04T15:49:38.125Z,4.12
2022-12-04T15:52:16.923Z,4.12
2022-12-04T15:54:56.578Z,4.10
2022-12-04T15:57:32.370Z,4.19
2022-12-04T16:00:25.114Z,4.22
2022-12-04T16:03:00.060Z,4.20
2022-12-04T16:05:37.216Z,4.13
2022-12-04T16:08:25.095Z,4.23
2022-12-04T16:11:00.641Z,4.23
2022-12-04T16:13:36.224Z,4.18
2022-12-04T16:16:16.694Z,4.23
2022-12-04T16:18:50.492Z,4.30
2022-12-04T16:21:30.524Z,4.30
2022-12-04T16:24:05.428Z,4.36
2022-12-04T16:26:39.217Z,4.33
2022-12-04T16:29:12.839Z,4.27
2022-12-04T16:31:51.605Z,4.33
2022-12-04T16:34:25.200Z,4.35
2022-12-04T16:37:00.061Z,4.35
2022-12-04T16:39:38.234Z,4.25
2022-12-04T16:42:18.518Z,4.30
2022-12-04T16:44:52.743Z,4.38
2022-12-04T16:47:27.977Z,4.39
2022-12-04T16:50:01.609Z,4.41
2022-12-04T16:52:35.777Z,4.38
2022-12-04T16:55:18.365Z,4.44
2022-12-04T16:57:52.282Z,4.46
2022-12-04T17:00:25.988Z,4.50
2022-12-04T17:03:04.066Z,4.52
2022-12-04T17:05:38.191Z,4.52
2022-12-04T17:08:12.374Z,4.55
2022-12-04T17:10:46.266Z,4.46
2022-12-04T17:13:20.807Z,4.48
2022-12-04T17:15:54.433Z,4.58
2022-12-04T17:18:30.044Z,4.56
2022-12-04T17:21:05.987Z,4.58
2022-12-04T17:23:40.460Z,4.56
2022-12-04T17:26:16.037Z,4.59
2022-12-04T17:28:50.565Z,4.54
2022-12-04T17:31:25.903Z,4.57
2022-12-04T17:34:01.189Z,4.57
2022-12-04T17:36:34.764Z,4.57
2022-12-04T17:39:11.455Z,4.64
2022-12-04T17:41:45.113Z,4.57
2022-12-04T17:44:18.909Z,4.56
2022-12-04T17:46:53.433Z,4.58
2022-12-04T17:49:28.875Z,4.62
2022-12-04T17:52:02.891Z,4.70
2022-12-04T17:54:36.738Z,4.75
2022-12-04T17:57:10.339Z,4.65
2022-12-04T17:59:44.409Z,4.62
2022-12-04T18:02:18.349Z,4.63
2022-12-04T18:04:54.436Z,4.61
2022-12-04T18:07:28.369Z,4.64
2022-12-04T18:10:02.212Z,4.74
2022-12-04T18:12:36.174Z,4.67
2022-12-04T18:15:10.666Z,4.70
2022-12-04T18:17:44.505Z,4.65
2022-12-04T18:20:19.668Z,4.67
2022-12-04T18:22:53.454Z,4.72
2022-12-04T18:25:27.449Z,4.72
2022-12-04T18:28:01.036Z,4.66
2022-12-04T18:30:36.077Z,4.62
2022-12-04T18:33:10.584Z,4.61
2022-12-04T18:35:55.871Z,4.65
2022-12-04T18:38:32.014Z,4.68
2022-12-04T18:41:07.519Z,4.67
2022-12-04T18:43:44.414Z,4.74
2022-12-04T18:46:19.526Z,4.67
2022-12-04T18:48:54.767Z,4.64
2022-12-04T18:51:32.129Z,4.67
2022-12-04T18:54:08.296Z,4.67
2022-12-04T18:56:43.137Z,4.64
2022-12-04T18:59:18.282Z,4.70
2022-12-04T19:01:52.511Z,4.72
2022-12-04T19:04:26.896Z,4.62
2022-12-04T19:07:04.799Z,4.62
2022-12-04T19:10:10.082Z,4.62
2022-12-04T19:12:32.114Z,4.63
2022-12-04T19:15:06.565Z,4.71
2022-12-04T19:17:40.354Z,4.62
2022-12-04T19:20:14.585Z,4.71
2022-12-04T19:22:50.058Z,4.71
2022-12-04T19:25:23.646Z,4.66
2022-12-04T19:27:57.773Z,4.58
2022-12-04T19:30:32.959Z,4.66
2022-12-04T19:33:06.862Z,4.70
2022-12-04T19:35:40.603Z,4.70
2022-12-04T19:38:16.098Z,4.70
2022-12-04T19:40:49.770Z,4.68
2022-12-04T19:43:23.615Z,4.60
2022-12-04T19:45:57.357Z,4.60
2022-12-04T19:48:31.113Z,4.61
2022-12-04T19:51:05.766Z,4.64
2022-12-04T19:53:41.479Z,4.54
2022-12-04T19:56:16.780Z,4.65
2022-12-04T19:58:50.820Z,4.65
2022-12-04T20:01:26.755Z,4.56
2022-12-04T20:04:02.474Z,4.58
2022-12-04T20:06:38.788Z,4.52
2022-12-04T20:09:15.214Z,4.58
2022-12-04T20:11:49.348Z,4.62
2022-12-04T20:14:24.267Z,4.51
2022-12-04T20:16:58.572Z,4.59
2022-12-04T20:19:32.362Z,4.64
2022-12-04T20:22:06.195Z,4.61
2022-12-04T20:24:41.353Z,4.59
2022-12-04T20:27:15.144Z,4.64
2022-12-04T20:29:48.950Z,4.66
2022-12-04T20:32:22.646Z,4.65
2022-12-04T20:34:56.364Z,4.57
2022-12-04T20:37:30.005Z,4.55
2022-12-04T20:40:07.551Z,4.67
2022-12-04T20:42:41.112Z,4.68
2022-12-04T20:45:15.132Z,4.63
2022-12-04T20:47:48.711Z,4.65
2022-12-04T20:50:22.546Z,4.64
2022-12-04T20:52:56.160Z,4.64
2022-12-04T20:55:31.256Z,4.63
2022-12-04T20:58:04.973Z,4.57
2022-12-04T21:00:38.769Z,4.58
2022-12-04T21:03:12.470Z,4.66
2022-12-04T21:05:49.769Z,4.73
2022-12-04T21:08:48.558Z,4.67
2022-12-04T21:11:24.604Z,4.68
2022-12-04T21:14:18.065Z,4.68
2022-12-04T21:16:52.134Z,4.62
2022-12-04T21:19:25.980Z,4.59
2022-12-04T21:21:59.794Z,4.56
2022-12-04T21:24:38.260Z,4.66
2022-12-04T21:27:19.097Z,4.61
2022-12-04T21:29:55.965Z,4.62
2022-12-04T21:32:30.097Z,4.68
2022-12-04T21:35:03.692Z,4.62
2022-12-04T21:37:37.707Z,4.63
2022-12-04T21:40:11.833Z,4.60
2022-12-04T21:42:47.046Z,4.64
2022-12-04T21:45:20.721Z,4.63
2022-12-04T21:47:54.485Z,4.64
2022-12-04T21:50:28.061Z,4.63
2022-12-04T21:53:01.775Z,4.64
2022-12-04T21:55:35.487Z,4.59
2022-12-04T21:58:10.629Z,4.57
2022-12-04T22:00:44.416Z,4.64
2022-12-04T22:03:19.067Z,4.65
2022-12-04T22:05:52.841Z,4.65
2022-12-04T22:08:26.587Z,4.65
2022-12-04T22:11:00.185Z,4.60
2022-12-04T22:13:36.950Z,4.65
2022-12-04T22:16:13.001Z,4.72
2022-12-04T22:18:47.250Z,4.68
2022-12-04T22:21:21.023Z,4.71
2022-12-04T22:23:58.616Z,4.68
2022-12-04T22:26:32.450Z,4.68
2022-12-04T22:29:41.616Z,4.74
2022-12-04T22:32:02.540Z,4.74
2022-12-04T22:34:36.452Z,4.65
2022-12-04T22:37:10.209Z,4.65
2022-12-04T22:39:44.038Z,4.74
2022-12-04T22:42:17.617Z,4.69
2022-12-04T22:44:52.709Z,4.66
2022-12-04T22:47:26.313Z,4.67
2022-12-04T22:50:00.342Z,4.64
2022-12-04T22:52:34.343Z,4.62
2022-12-04T22:55:08.897Z,4.59
2022-12-04T22:57:42.466Z,4.68
2022-12-04T23:00:17.969Z,4.69
2022-12-04T23:02:51.666Z,4.70
2022-12-04T23:05:25.605Z,4.65
2022-12-04T23:07:59.419Z,4.70
2022-12-04T23:10:33.356Z,4.57
2022-12-04T23:13:07.027Z,4.64
2022-12-04T23:15:42.217Z,4.58
2022-12-04T23:18:15.903Z,4.62
2022-12-04T23:20:49.741Z,4.65
2022-12-04T23:23:23.260Z,4.61
2022-12-04T23:25:57.018Z,4.67
2022-12-04T23:28:30.586Z,4.72
2022-12-04T23:31:06.156Z,4.66
2022-12-04T23:33:40.568Z,4.67
2022-12-04T23:36:15.237Z,4.68
2022-12-04T23:38:48.958Z,4.68
2022-12-04T23:41:24.477Z,4.65
2022-12-04T23:43:58.603Z,4.66
2022-12-04T23:46:34.156Z,4.72
2022-12-04T23:49:07.683Z,4.58
2022-12-04T23:51:41.539Z,4.55
2022-12-04T23:54:15.224Z,4.56
2022-12-04T23:56:49.350Z,4.57
2022-12-04T23:59:22.936Z,4.56
